Time;durP1;ratioP1;P1;durP2;ratioP2;P2;SDS_P1;SDS_P2;PMS_P1;PMS_P2;Temp;Humidity;BMP_temperature;BMP_pressure;BME280_temperature;BME280_humidity;BME280_pressure;Samples;Min_cycle;Max_cycle;Signal;HPM_P1;HPM_P2
2021/11/22 00:02:13;;;;;;;3.78;2.28;;;17.60;62.50;;;;;;5051955;28;20172;-62
2021/11/22 00:04:38;;;;;;;5.15;2.47;;;17.60;62.40;;;;;;5051358;28;20225;-62
2021/11/22 00:07:04;;;;;;;3.72;2.33;;;17.60;62.40;;;;;;5052386;28;20234;-62
2021/11/22 00:09:32;;;;;;;3.22;2.30;;;17.50;62.40;;;;;;5051847;28;20232;-62
2021/11/22 00:11:58;;;;;;;4.85;2.30;;;17.60;62.40;;;;;;5051685;28;20551;-62
2021/11/22 00:14:23;;;;;;;3.72;2.42;;;17.50;62.40;;;;;;5052280;28;20602;-62
2021/11/22 00:16:49;;;;;;;2.78;2.08;;;17.50;62.30;;;;;;5052219;28;20232;-62
2021/11/22 00:19:14;;;;;;;3.08;2.08;;;17.50;62.30;;;;;;5051493;28;20179;-61
2021/11/22 00:21:40;;;;;;;4.00;2.35;;;17.50;62.40;;;;;;5051671;28;20614;-62
2021/11/22 00:24:05;;;;;;;5.65;3.50;;;17.50;62.30;;;;;;5051485;28;20171;-62
2021/11/22 00:26:34;;;;;;;3.03;1.88;;;17.50;62.30;;;;;;5051546;28;20183;-62
2021/11/22 00:28:59;;;;;;;4.35;2.40;;;17.50;62.40;;;;;;5052037;28;20221;-62
2021/11/22 00:31:25;;;;;;;3.13;2.03;;;17.40;62.30;;;;;;5051338;28;20211;-63
2021/11/22 00:33:52;;;;;;;4.20;2.10;;;17.40;62.30;;;;;;5051630;28;20545;-62
2021/11/22 00:36:18;;;;;;;3.58;1.90;;;17.40;62.20;;;;;;5051815;28;20652;-62
2021/11/22 00:38:43;;;;;;;4.28;2.05;;;17.40;62.30;;;;;;5050748;28;20179;-61
2021/11/22 00:41:09;;;;;;;5.68;2.65;;;17.40;62.30;;;;;;5051995;28;20198;-62
2021/11/22 00:43:34;;;;;;;4.45;2.22;;;17.40;62.40;;;;;;5051613;28;20622;-62
2021/11/22 00:46:00;;;;;;;4.10;2.20;;;17.40;62.40;;;;;;5050991;28;20269;-62
2021/11/22 00:48:25;;;;;;;2.95;1.95;;;17.40;62.20;;;;;;5051759;28;20262;-61
2021/11/22 00:50:52;;;;;;;3.78;2.10;;;17.40;62.40;;;;;;5051460;28;20206;-62
2021/11/22 00:53:17;;;;;;;2.25;1.70;;;17.40;62.40;;;;;;5051062;28;20175;-63
2021/11/22 00:55:43;;;;;;;3.55;2.42;;;17.30;62.20;;;;;;5051529;28;20175;-63
2021/11/22 00:58:08;;;;;;;2.45;1.70;;;17.40;62.30;;;;;;5051729;28;20213;-63
2021/11/22 01:00:34;;;;;;;5.88;2.33;;;17.30;62.30;;;;;;5050466;28;20591;-62
2021/11/22 01:03:00;;;;;;;3.13;2.13;;;17.30;62.20;;;;;;5051701;28;20679;-62
2021/11/22 01:05:25;;;;;;;4.20;1.80;;;17.30;62.30;;;;;;5051602;28;20273;-61
2021/11/22 01:07:51;;;;;;;3.33;2.15;;;17.30;62.30;;;;;;5050507;28;20266;-61
2021/11/22 01:10:17;;;;;;;2.75;2.08;;;17.30;62.30;;;;;;5051914;28;20199;-61
2021/11/22 01:12:42;;;;;;;3.97;2.05;;;17.30;62.20;;;;;;5051794;28;20190;-62
2021/11/22 01:15:10;;;;;;;2.83;1.67;;;17.30;62.30;;;;;;5054859;28;20202;-62
2021/11/22 01:17:36;;;;;;;3.65;2.05;;;17.30;62.40;;;;;;5055307;28;20179;-62
2021/11/22 01:20:04;;;;;;;2.67;1.85;;;17.30;62.30;;;;;;5055452;28;20185;-62
2021/11/22 01:22:29;;;;;;;3.88;2.20;;;17.30;62.20;;;;;;5054443;28;20262;-62
2021/11/22 01:24:56;;;;;;;3.42;2.00;;;17.20;62.20;;;;;;5055507;28;20241;-63
2021/11/22 01:27:22;;;;;;;2.40;1.70;;;17.20;62.20;;;;;;5054707;28;20183;-62
2021/11/22 01:29:47;;;;;;;2.33;1.63;;;17.20;62.20;;;;;;5055002;28;20653;-61
2021/11/22 01:32:13;;;;;;;2.97;1.50;;;17.20;62.30;;;;;;5055207;28;20211;-62
2021/11/22 01:34:38;;;;;;;2.45;1.48;;;17.20;62.30;;;;;;5054322;28;20171;-62
2021/11/22 01:37:04;;;;;;;3.00;1.90;;;17.20;62.20;;;;;;5055095;28;20183;-62
2021/11/22 01:39:29;;;;;;;2.63;1.80;;;17.20;62.30;;;;;;5054983;28;20612;-62
2021/11/22 01:41:55;;;;;;;3.47;2.05;;;17.20;62.30;;;;;;5054538;28;20225;-62
2021/11/22 01:44:20;;;;;;;4.10;1.92;;;17.20;62.30;;;;;;5055058;28;20171;-62
2021/11/22 01:46:48;;;;;;;3.13;2.00;;;17.20;62.30;;;;;;5054387;28;20227;-61
2021/11/22 01:49:14;;;;;;;3.20;2.00;;;17.20;62.30;;;;;;5054142;28;20539;-62
2021/11/22 01:51:40;;;;;;;3.67;1.73;;;17.20;62.40;;;;;;5054372;28;20219;-62
2021/11/22 01:54:05;;;;;;;2.38;1.85;;;17.10;62.30;;;;;;5054916;28;20648;-63
2021/11/22 01:56:31;;;;;;;2.53;1.92;;;17.10;62.30;;;;;;5053770;28;20258;-63
2021/11/22 01:58:56;;;;;;;3.13;1.98;;;17.10;62.20;;;;;;5054634;28;20180;-62
2021/11/22 02:01:22;;;;;;;2.60;1.60;;;17.10;62.30;;;;;;5054596;28;20719;-62
2021/11/22 02:03:47;;;;;;;3.38;1.98;;;17.10;62.20;;;;;;5053537;28;21002;-61
2021/11/22 02:06:13;;;;;;;2.90;1.88;;;17.10;62.20;;;;;;5054509;28;20262;-62
2021/11/22 02:08:39;;;;;;;3.00;1.75;;;17.10;62.30;;;;;;5054172;28;20201;-61
2021/11/22 02:11:05;;;;;;;3.72;1.90;;;17.10;62.30;;;;;;5053673;28;20214;-61
2021/11/22 02:13:31;;;;;;;3.10;1.90;;;17.10;62.30;;;;;;5054127;28;20179;-62
2021/11/22 02:15:56;;;;;;;3.17;1.90;;;17.10;62.20;;;;;;5054156;28;20178;-61
2021/11/22 02:18:22;;;;;;;3.30;1.60;;;17.10;62.30;;;;;;5053422;28;20175;-62
2021/11/22 02:20:47;;;;;;;3.55;1.75;;;17.10;62.30;;;;;;5053966;28;20725;-62
2021/11/22 02:23:13;;;;;;;1.67;1.40;;;17.00;62.30;;;;;;5054443;28;20178;-61
2021/11/22 02:25:40;;;;;;;2.85;1.88;;;17.10;62.30;;;;;;5052576;28;20229;-62
2021/11/22 02:28:06;;;;;;;2.00;1.52;;;17.00;62.20;;;;;;5054239;28;20595;-62
2021/11/22 02:30:34;;;;;;;3.40;1.90;;;17.00;62.30;;;;;;5053243;28;20745;-62
2021/11/22 02:33:01;;;;;;;2.30;1.70;;;17.00;62.30;;;;;;5054012;28;20254;-61
2021/11/22 02:35:27;;;;;;;2.15;1.70;;;17.00;62.30;;;;;;5053844;28;20179;-61
2021/11/22 02:37:53;;;;;;;2.70;1.65;;;17.00;62.30;;;;;;5053084;28;20727;-62
2021/11/22 02:40:18;;;;;;;2.08;1.40;;;17.00;62.30;;;;;;5053867;28;20369;-62
2021/11/22 02:42:44;;;;;;;2.58;1.58;;;17.00;62.40;;;;;;5053427;28;20167;-62
2021/11/22 02:45:11;;;;;;;3.03;1.50;;;17.00;62.30;;;;;;5052805;28;20225;-61
2021/11/22 02:47:37;;;;;;;2.15;1.55;;;17.00;62.40;;;;;;5053400;28;20175;-62
2021/11/22 02:50:04;;;;;;;3.38;1.73;;;16.90;62.20;;;;;;5053672;28;20601;-62
2021/11/22 02:52:29;;;;;;;2.35;1.70;;;17.00;62.40;;;;;;5052810;28;20190;-62
2021/11/22 02:54:55;;;;;;;2.03;1.70;;;17.00;62.40;;;;;;5053597;28;20175;-62
2021/11/22 02:57:20;;;;;;;3.00;1.42;;;17.00;62.20;;;;;;5053255;28;20206;-63
2021/11/22 02:59:46;;;;;;;3.03;1.60;;;16.90;62.20;;;;;;5052473;28;20528;-63
2021/11/22 03:02:12;;;;;;;2.47;1.48;;;16.90;62.20;;;;;;5053241;28;20262;-62
2021/11/22 03:04:40;;;;;;;2.55;1.75;;;16.90;62.20;;;;;;5053243;28;20183;-62
2021/11/22 03:07:06;;;;;;;2.75;1.83;;;16.90;62.20;;;;;;5052757;28;20183;-61
2021/11/22 03:09:31;;;;;;;2.92;1.77;;;16.90;62.20;;;;;;5053215;28;20182;-60
2021/11/22 03:11:59;;;;;;;3.17;1.45;;;16.90;62.30;;;;;;5053363;28;20222;-62
2021/11/22 03:14:26;;;;;;;2.25;1.30;;;16.90;62.40;;;;;;5052592;28;20455;-62
2021/11/22 03:16:52;;;;;;;2.83;1.35;;;16.90;62.30;;;;;;5051745;28;20190;-62
2021/11/22 03:19:18;;;;;;;1.98;1.42;;;16.90;62.20;;;;;;5053089;28;20642;-61
2021/11/22 03:21:44;;;;;;;2.58;1.58;;;16.90;62.30;;;;;;5052386;28;20205;-61
2021/11/22 03:24:10;;;;;;;2.25;1.40;;;16.90;62.20;;;;;;5053281;28;20179;-62
2021/11/22 03:26:38;;;;;;;2.65;1.65;;;16.80;62.20;;;;;;5052909;28;20179;-62
2021/11/22 03:29:03;;;;;;;1.80;1.50;;;16.80;62.20;;;;;;5052319;28;20175;-62
2021/11/22 03:31:30;;;;;;;2.17;1.40;;;16.80;62.30;;;;;;5052602;28;20309;-62
2021/11/22 03:33:55;;;;;;;1.90;1.30;;;16.80;62.30;;;;;;5052493;28;20167;-62
2021/11/22 03:36:21;;;;;;;2.22;1.42;;;16.80;62.30;;;;;;5052207;28;20179;-62
2021/11/22 03:38:46;;;;;;;2.00;1.30;;;16.80;62.30;;;;;;5052527;28;20198;-62
2021/11/22 03:41:14;;;;;;;2.92;1.63;;;16.80;62.30;;;;;;5052152;28;20187;-62
2021/11/22 03:43:50;;;;;;;2.85;1.50;;;16.80;62.40;;;;;;5052258;28;20642;-63
2021/11/22 03:46:17;;;;;;;1.33;1.10;;;16.80;62.30;;;;;;5052536;28;20238;-61
2021/11/22 03:48:42;;;;;;;2.55;1.50;;;16.80;62.30;;;;;;5051556;28;20634;-62
2021/11/22 03:51:08;;;;;;;1.42;1.10;;;16.80;62.20;;;;;;5052554;28;20301;-62
2021/11/22 03:53:33;;;;;;;1.40;1.27;;;16.80;62.30;;;;;;5052405;28;20630;-63
2021/11/22 03:55:59;;;;;;;1.58;1.23;;;16.80;62.30;;;;;;5051940;28;20183;-65
2021/11/22 03:58:25;;;;;;;1.35;1.20;;;16.80;62.30;;;;;;5052521;28;20199;-63
2021/11/22 04:00:50;;;;;;;1.70;1.35;;;16.80;62.30;;;;;;5052093;28;20723;-62
2021/11/22 04:03:16;;;;;;;2.13;1.30;;;16.70;62.20;;;;;;5051741;28;20630;-62
2021/11/22 04:05:41;;;;;;;2.33;1.50;;;16.70;62.20;;;;;;5052098;28;20183;-62
2021/11/22 04:08:08;;;;;;;2.38;1.23;;;16.70;62.20;;;;;;5052434;28;20164;-62
2021/11/22 04:10:37;;;;;;;1.38;1.17;;;16.70;62.30;;;;;;5051211;28;20203;-62
2021/11/22 04:13:03;;;;;;;1.38;1.10;;;16.70;62.30;;;;;;5051976;28;20186;-62
2021/11/22 04:15:28;;;;;;;2.63;1.38;;;16.70;62.30;;;;;;5052166;28;20175;-62
2021/11/22 04:17:54;;;;;;;1.38;1.20;;;16.70;62.30;;;;;;5051620;28;20541;-63
2021/11/22 04:20:20;;;;;;;1.45;1.35;;;16.70;62.30;;;;;;5052341;28;20218;-62
2021/11/22 04:22:45;;;;;;;0.90;0.90;;;16.70;62.20;;;;;;5051861;28;20262;-62
2021/11/22 04:25:11;;;;;;;1.50;1.20;;;16.70;62.30;;;;;;5051316;28;20224;-62
2021/11/22 04:27:37;;;;;;;1.20;1.10;;;16.70;62.30;;;;;;5051839;28;20258;-61
2021/11/22 04:30:04;;;;;;;1.38;1.13;;;16.70;62.30;;;;;;5052439;28;20175;-63
2021/11/22 04:32:30;;;;;;;1.20;1.02;;;16.60;62.20;;;;;;5051076;28;20739;-63
2021/11/22 04:34:55;;;;;;;1.77;1.30;;;16.60;62.20;;;;;;5052185;28;20179;-63
2021/11/22 04:37:25;;;;;;;1.58;1.00;;;16.60;62.20;;;;;;5051173;28;20182;-62
2021/11/22 04:39:51;;;;;;;0.80;0.80;;;16.60;62.20;;;;;;5051487;28;20205;-62
2021/11/22 04:42:16;;;;;;;1.33;1.10;;;16.60;62.20;;;;;;5051673;28;20661;-63
2021/11/22 04:44:42;;;;;;;1.35;1.17;;;16.60;62.20;;;;;;5050630;28;20529;-62
2021/11/22 04:47:09;;;;;;;1.27;1.08;;;16.60;62.10;;;;;;5051406;28;20219;-62
2021/11/22 04:49:36;;;;;;;1.30;1.05;;;16.60;62.20;;;;;;5051265;28;20617;-62
2021/11/22 04:52:02;;;;;;;1.55;1.23;;;16.60;62.20;;;;;;5050872;28;20223;-64
2021/11/22 04:54:27;;;;;;;2.08;1.30;;;16.60;62.20;;;;;;5050231;28;20640;-64
2021/11/22 04:56:53;;;;;;;1.58;1.27;;;16.60;62.30;;;;;;5051345;28;20185;-63
2021/11/22 04:59:18;;;;;;;1.45;1.08;;;16.60;62.20;;;;;;5050811;28;20179;-63
2021/11/22 05:01:44;;;;;;;1.23;1.05;;;16.60;62.20;;;;;;5051123;28;20176;-63
2021/11/22 05:04:10;;;;;;;2.22;1.38;;;16.60;62.20;;;;;;5051718;28;20561;-63
2021/11/22 05:06:35;;;;;;;1.20;0.98;;;16.60;62.20;;;;;;5050390;28;20178;-62
2021/11/22 05:09:01;;;;;;;2.08;1.60;;;16.50;62.30;;;;;;5051556;28;20179;-61
2021/11/22 05:11:27;;;;;;;1.60;1.30;;;16.50;62.20;;;;;;5051199;28;20235;-63
2021/11/22 05:13:53;;;;;;;1.20;1.10;;;16.50;62.20;;;;;;5050769;28;20210;-62
2021/11/22 05:16:18;;;;;;;1.65;1.25;;;16.50;62.20;;;;;;5051642;28;20175;-62
2021/11/22 05:18:44;;;;;;;1.30;1.08;;;16.50;62.20;;;;;;5051198;28;20760;-62
2021/11/22 05:21:10;;;;;;;1.55;1.10;;;16.50;62.20;;;;;;5050920;28;20598;-62
2021/11/22 05:23:35;;;;;;;2.20;1.17;;;16.50;62.20;;;;;;5051110;28;20209;-63
2021/11/22 05:26:01;;;;;;;2.60;1.05;;;16.50;62.20;;;;;;5051203;28;20190;-63
2021/11/22 05:28:27;;;;;;;1.88;1.08;;;16.50;62.20;;;;;;5050504;28;20178;-63
2021/11/22 05:30:52;;;;;;;1.73;1.23;;;16.50;62.20;;;;;;5050920;28;20260;-62
2021/11/22 05:33:18;;;;;;;1.10;1.00;;;16.50;62.20;;;;;;5051305;28;20167;-62
2021/11/22 05:35:43;;;;;;;1.38;1.20;;;16.50;62.20;;;;;;5050091;28;20182;-62
2021/11/22 05:38:09;;;;;;;1.55;1.08;;;16.50;62.30;;;;;;5051003;28;20179;-63
2021/11/22 05:40:34;;;;;;;1.00;0.90;;;16.50;62.20;;;;;;5049915;28;20168;-63
2021/11/22 05:43:00;;;;;;;0.95;0.80;;;16.50;62.30;;;;;;5051197;28;20175;-62
2021/11/22 05:45:25;;;;;;;1.40;0.95;;;16.40;62.20;;;;;;5051324;28;20227;-62
2021/11/22 05:47:51;;;;;;;1.40;1.30;;;16.40;62.20;;;;;;5050221;28;20167;-62
2021/11/22 05:50:18;;;;;;;1.10;1.00;;;16.40;62.20;;;;;;5051007;28;20313;-62
2021/11/22 05:52:49;;;;;;;2.65;1.23;;;16.40;62.20;;;;;;5050788;28;20203;-63
2021/11/22 05:55:22;;;;;;;1.48;1.00;;;16.40;62.20;;;;;;5050316;28;20182;-63
2021/11/22 05:57:47;;;;;;;2.00;1.35;;;16.40;62.20;;;;;;5051031;28;20175;-63
2021/11/22 06:00:13;;;;;;;1.02;0.88;;;16.40;62.20;;;;;;5052173;28;20167;-63
2021/11/22 06:02:38;;;;;;;1.25;1.00;;;16.40;62.20;;;;;;5053635;28;20186;-62
2021/11/22 06:05:04;;;;;;;1.13;0.95;;;16.40;62.20;;;;;;5054810;28;20221;-62
2021/11/22 06:07:30;;;;;;;1.20;1.10;;;16.40;62.20;;;;;;5054456;28;20669;-61
2021/11/22 06:09:58;;;;;;;1.23;1.13;;;16.40;62.20;;;;;;5053922;28;20171;-62
2021/11/22 06:12:23;;;;;;;1.60;0.95;;;16.40;62.20;;;;;;5054412;28;20765;-63
2021/11/22 06:14:52;;;;;;;1.20;1.10;;;16.40;62.20;;;;;;5054467;28;20286;-62
2021/11/22 06:17:17;;;;;;;1.08;0.90;;;16.40;62.20;;;;;;5053779;28;20175;-63
2021/11/22 06:19:43;;;;;;;1.98;1.13;;;16.30;62.20;;;;;;5054121;28;20180;-62
2021/11/22 06:22:08;;;;;;;1.85;1.10;;;16.40;62.20;;;;;;5054364;28;20257;-62
2021/11/22 06:24:34;;;;;;;2.25;0.98;;;16.30;62.20;;;;;;5053288;28;20266;-62
2021/11/22 06:27:01;;;;;;;1.00;0.90;;;16.30;62.20;;;;;;5054367;28;20201;-62
2021/11/22 06:29:27;;;;;;;1.13;1.02;;;16.30;62.20;;;;;;5054345;28;20190;-62
2021/11/22 06:31:52;;;;;;;1.67;1.38;;;16.30;62.20;;;;;;5053242;28;20225;-61
2021/11/22 06:34:18;;;;;;;1.02;0.88;;;16.30;62.10;;;;;;5054162;28;20178;-61
2021/11/22 06:36:44;;;;;;;1.73;1.35;;;16.30;62.20;;;;;;5053115;28;20175;-62
2021/11/22 06:39:09;;;;;;;1.85;0.93;;;16.30;62.20;;;;;;5053933;28;20190;-60
2021/11/22 06:41:35;;;;;;;1.85;1.10;;;16.30;62.20;;;;;;5053805;28;20696;-62
2021/11/22 06:44:00;;;;;;;1.38;0.90;;;16.30;62.20;;;;;;5053467;28;20183;-62
2021/11/22 06:46:26;;;;;;;1.80;1.13;;;16.30;62.20;;;;;;5053683;28;20269;-61
2021/11/22 06:48:51;;;;;;;1.48;1.05;;;16.30;62.20;;;;;;5053552;28;20171;-62
2021/11/22 06:51:17;;;;;;;0.98;0.98;;;16.30;62.20;;;;;;5052969;28;20230;-62
2021/11/22 06:53:42;;;;;;;1.23;1.02;;;16.30;62.10;;;;;;5053350;28;20168;-62
2021/11/22 06:56:08;;;;;;;2.00;1.10;;;16.20;62.10;;;;;;5053626;28;20179;-64
2021/11/22 06:58:33;;;;;;;1.25;1.10;;;16.20;62.10;;;;;;5052516;28;20521;-62
2021/11/22 07:00:59;;;;;;;2.15;1.00;;;16.30;63.00;;;;;;5053768;28;20175;-62
2021/11/22 07:03:25;;;;;;;1.27;1.00;;;16.20;62.20;;;;;;5053681;28;20207;-62
2021/11/22 07:05:51;;;;;;;1.20;1.10;;;16.30;62.10;;;;;;5052541;28;20183;-61
2021/11/22 07:08:16;;;;;;;1.55;1.00;;;16.30;61.90;;;;;;5053481;28;20179;-62
2021/11/22 07:10:42;;;;;;;1.02;0.90;;;16.30;61.90;;;;;;5053096;28;20729;-62
2021/11/22 07:13:07;;;;;;;1.20;1.10;;;16.30;61.90;;;;;;5052567;28;20704;-63
2021/11/22 07:15:35;;;;;;;1.00;0.93;;;16.40;62.00;;;;;;5053239;28;20186;-63
2021/11/22 07:18:01;;;;;;;1.20;1.10;;;16.40;61.90;;;;;;5053408;28;20190;-63
2021/11/22 07:20:26;;;;;;;1.35;0.90;;;16.40;61.90;;;;;;5052523;28;20554;-63
2021/11/22 07:22:52;;;;;;;1.45;1.13;;;16.40;61.90;;;;;;5052826;28;20548;-61
2021/11/22 07:25:17;;;;;;;1.08;0.98;;;16.40;61.80;;;;;;5053244;28;20641;-63
2021/11/22 07:27:43;;;;;;;0.70;0.55;;;16.40;61.80;;;;;;5052266;28;20536;-63
2021/11/22 07:30:09;;;;;;;1.50;0.90;;;16.40;62.70;;;;;;5053016;28;20648;-64
2021/11/22 07:32:34;;;;;;;1.17;0.80;;;16.40;61.90;;;;;;5052917;28;20583;-63
2021/11/22 07:35:00;;;;;;;0.95;0.80;;;16.40;62.00;;;;;;5052299;28;20719;-62
2021/11/22 07:37:26;;;;;;;1.02;0.82;;;16.50;62.00;;;;;;5052794;28;20644;-63
2021/11/22 07:39:54;;;;;;;1.05;0.90;;;16.60;62.00;;;;;;5052803;28;20179;-63
2021/11/22 07:42:20;;;;;;;1.35;0.90;;;16.70;61.80;;;;;;5052297;28;20167;-63
2021/11/22 07:44:45;;;;;;;2.15;0.98;;;16.80;61.70;;;;;;5052705;28;20179;-62
2021/11/22 07:47:11;;;;;;;1.02;0.80;;;17.10;61.10;;;;;;5051884;28;20549;-62
2021/11/22 07:49:37;;;;;;;0.80;0.80;;;17.30;60.70;;;;;;5052462;28;20221;-63
2021/11/22 07:52:02;;;;;;;1.92;0.90;;;17.60;60.20;;;;;;5052677;28;20222;-63
2021/11/22 07:54:28;;;;;;;1.35;0.75;;;17.90;59.70;;;;;;5051750;28;20175;-63
2021/11/22 07:56:53;;;;;;;1.10;0.90;;;18.10;59.10;;;;;;5052714;28;20225;-68
2021/11/22 07:59:20;;;;;;;1.17;0.80;;;18.40;58.50;;;;;;5052675;28;20203;-69
2021/11/22 08:01:47;;;;;;;0.80;0.70;;;18.60;58.20;;;;;;5051279;28;20183;-69
2021/11/22 08:04:13;;;;;;;0.82;0.75;;;18.70;57.80;;;;;;5052401;28;20206;-68
2021/11/22 08:06:45;;;;;;;1.02;0.88;;;18.80;57.70;;;;;;5052051;28;20179;-69
2021/11/22 08:09:16;;;;;;;0.70;0.70;;;18.70;57.60;;;;;;5051805;28;20179;-67
2021/11/22 08:12:26;;;;;;;1.35;0.80;;;18.70;57.60;;;;;;5051949;28;20222;-68
2021/11/22 08:14:33;;;;;;;0.80;0.80;;;18.80;57.70;;;;;;5049663;28;20191;-67
2021/11/22 08:16:58;;;;;;;0.77;0.77;;;18.80;57.70;;;;;;5051416;28;20182;-67
2021/11/22 08:19:24;;;;;;;2.33;1.00;;;18.80;57.70;;;;;;5051068;28;20171;-66
2021/11/22 08:21:49;;;;;;;1.00;0.75;;;18.80;57.70;;;;;;5050497;28;20179;-66
2021/11/22 08:24:15;;;;;;;1.05;0.70;;;18.80;57.60;;;;;;5049738;28;20171;-66
2021/11/22 08:26:41;;;;;;;0.63;0.60;;;18.90;57.60;;;;;;5051645;28;20175;-67
2021/11/22 08:29:06;;;;;;;2.08;0.60;;;18.90;57.60;;;;;;5051894;28;20167;-66
2021/11/22 08:31:32;;;;;;;0.68;0.68;;;18.80;57.70;;;;;;5050777;28;20235;-68
2021/11/22 08:33:57;;;;;;;0.80;0.60;;;18.80;57.90;;;;;;5051808;28;20175;-67
2021/11/22 08:36:25;;;;;;;0.88;0.85;;;18.70;58.00;;;;;;5051269;28;20669;-68
2021/11/22 08:38:51;;;;;;;1.02;0.90;;;18.60;58.20;;;;;;5051733;28;20261;-67
2021/11/22 08:41:17;;;;;;;0.85;0.70;;;18.60;58.30;;;;;;5051868;28;20626;-67
2021/11/22 08:43:42;;;;;;;2.60;0.90;;;18.60;58.40;;;;;;5050970;28;20185;-68
2021/11/22 08:46:08;;;;;;;1.58;0.77;;;18.60;58.30;;;;;;5051359;28;20634;-66
2021/11/22 08:48:33;;;;;;;2.83;0.70;;;18.60;58.30;;;;;;5051705;28;20202;-66
2021/11/22 08:51:02;;;;;;;1.23;0.70;;;18.70;58.50;;;;;;5051185;28;20298;-64
2021/11/22 08:53:27;;;;;;;2.20;0.82;;;18.70;58.60;;;;;;5051789;28;20268;-67
2021/11/22 08:55:53;;;;;;;1.52;0.70;;;18.80;58.50;;;;;;5051430;28;20535;-67
2021/11/22 08:58:18;;;;;;;1.50;0.82;;;18.80;58.40;;;;;;5051048;28;20194;-66
2021/11/22 09:00:44;;;;;;;0.63;0.63;;;18.80;58.70;;;;;;5051099;28;20629;-67
2021/11/22 09:03:09;;;;;;;1.52;0.80;;;18.70;58.70;;;;;;5050436;28;20179;-65
2021/11/22 09:05:35;;;;;;;1.92;0.75;;;18.70;58.90;;;;;;5050844;28;20517;-66
2021/11/22 09:08:00;;;;;;;0.95;0.70;;;18.70;59.00;;;;;;5051459;28;20551;-67
2021/11/22 09:10:26;;;;;;;1.15;0.82;;;18.70;59.10;;;;;;5060276;28;20175;-66
2021/11/22 09:12:51;;;;;;;1.70;1.00;;;18.70;59.20;;;;;;5062905;28;20501;-66
2021/11/22 09:15:17;;;;;;;3.67;1.00;;;18.60;59.40;;;;;;5071567;28;20253;-66
2021/11/22 09:17:43;;;;;;;1.80;0.77;;;18.50;59.10;;;;;;5053065;28;20198;-66
2021/11/22 09:20:09;;;;;;;0.68;0.68;;;18.50;59.20;;;;;;5050875;28;20205;-65
2021/11/22 09:22:35;;;;;;;0.82;0.75;;;18.40;59.30;;;;;;5050971;28;20178;-66
2021/11/22 09:25:03;;;;;;;1.02;0.93;;;18.40;59.50;;;;;;5058513;28;20194;-67
2021/11/22 09:27:29;;;;;;;0.88;0.70;;;18.40;59.70;;;;;;5070731;28;20616;-63
2021/11/22 09:29:54;;;;;;;0.98;0.75;;;18.30;59.90;;;;;;5071559;28;20230;-64
2021/11/22 09:32:20;;;;;;;4.03;1.00;;;18.30;60.20;;;;;;5071524;28;20335;-66
2021/11/22 09:34:45;;;;;;;1.42;0.90;;;18.20;60.40;;;;;;5071249;28;20167;-66
2021/11/22 09:37:11;;;;;;;1.77;0.98;;;18.10;60.40;;;;;;5075468;28;20637;-66
2021/11/22 09:39:36;;;;;;;3.53;1.00;;;18.10;60.70;;;;;;5054591;28;20536;-68
2021/11/22 09:42:02;;;;;;;2.22;0.90;;;18.10;61.10;;;;;;5062134;28;20182;-68
2021/11/22 09:44:27;;;;;;;3.60;0.77;;;18.00;60.80;;;;;;5074927;28;20171;-68
2021/11/22 09:46:53;;;;;;;2.45;0.90;;;18.00;60.90;;;;;;5073843;28;20250;-67
2021/11/22 09:49:19;;;;;;;2.47;0.90;;;17.90;60.90;;;;;;5075071;28;20174;-67
2021/11/22 09:51:44;;;;;;;1.80;0.80;;;17.90;60.80;;;;;;5074550;28;20688;-69
2021/11/22 09:54:10;;;;;;;4.00;1.10;;;17.90;60.90;;;;;;5074203;28;20170;-67
2021/11/22 09:56:35;;;;;;;2.13;0.80;;;17.90;60.90;;;;;;5074431;28;20320;-67
2021/11/22 09:59:01;;;;;;;2.70;1.17;;;17.90;61.00;;;;;;5074577;28;20262;-66
2021/11/22 10:01:30;;;;;;;0.95;0.80;;;17.80;60.90;;;;;;5074124;28;20273;-68
2021/11/22 10:04:08;;;;;;;2.38;0.70;;;17.90;61.00;;;;;;5073473;28;20217;-67
2021/11/22 10:06:51;;;;;;;1.02;0.73;;;17.90;60.70;;;;;;5074586;28;20296;-67
2021/11/22 10:09:39;;;;;;;1.25;1.15;;;17.90;60.70;;;;;;5073605;28;20201;-73
2021/11/22 10:12:20;;;;;;;2.75;1.00;;;17.90;60.70;;;;;;5074828;28;20214;-67
2021/11/22 10:14:48;;;;;;;1.88;1.02;;;17.90;60.60;;;;;;5073310;28;20617;-67
2021/11/22 10:17:33;;;;;;;1.60;0.80;;;17.90;60.60;;;;;;5058741;28;20199;-66
2021/11/22 10:20:12;;;;;;;2.15;0.95;;;17.80;60.50;;;;;;5054524;28;20175;-66
2021/11/22 10:22:47;;;;;;;1.98;0.75;;;17.80;60.50;;;;;;5053455;28;20197;-65
2021/11/22 10:25:19;;;;;;;5.43;0.95;;;17.80;60.60;;;;;;5053476;28;20181;-66
2021/11/22 10:27:45;;;;;;;2.42;0.85;;;17.70;60.60;;;;;;5054083;28;20643;-67
2021/11/22 10:30:25;;;;;;;1.83;0.70;;;17.70;60.60;;;;;;5053374;28;20209;-66
2021/11/22 10:32:53;;;;;;;1.92;0.80;;;17.70;60.60;;;;;;5054153;28;20208;-66
2021/11/22 10:35:19;;;;;;;4.13;0.90;;;17.70;60.60;;;;;;5054344;28;20205;-66
2021/11/22 10:37:59;;;;;;;0.95;0.88;;;17.70;60.60;;;;;;5051919;28;20261;-68
2021/11/22 10:40:26;;;;;;;2.08;0.60;;;17.60;60.60;;;;;;5054104;28;20190;-67
2021/11/22 10:42:52;;;;;;;1.65;0.70;;;17.60;60.30;;;;;;5053231;28;20207;-67
2021/11/22 10:45:28;;;;;;;1.17;0.73;;;17.60;60.40;;;;;;5053433;28;20376;-66
2021/11/22 10:48:18;;;;;;;1.48;0.77;;;17.60;60.40;;;;;;5053774;28;20186;-67
2021/11/22 10:50:49;;;;;;;1.40;0.85;;;17.60;60.20;;;;;;5052857;28;20207;-66
2021/11/22 10:53:15;;;;;;;1.83;0.60;;;17.60;60.20;;;;;;5053751;28;20179;-67
2021/11/22 10:55:45;;;;;;;1.23;0.70;;;17.60;60.20;;;;;;5053549;28;20193;-67
2021/11/22 10:58:28;;;;;;;0.90;0.73;;;17.60;60.20;;;;;;5053199;28;20213;-67
2021/11/22 11:00:54;;;;;;;1.08;0.70;;;17.70;60.20;;;;;;5052570;28;20179;-66
2021/11/22 11:03:19;;;;;;;1.27;0.90;;;17.70;60.10;;;;;;5053662;28;20179;-68
2021/11/22 11:05:55;;;;;;;3.17;0.70;;;17.80;59.90;;;;;;5052466;28;20171;-69
2021/11/22 11:08:21;;;;;;;3.15;1.00;;;17.80;60.00;;;;;;5052500;28;20191;-68
2021/11/22 11:10:50;;;;;;;2.05;1.13;;;17.80;60.00;;;;;;5053360;28;20222;-68
2021/11/22 11:13:15;;;;;;;2.42;0.90;;;17.80;60.10;;;;;;5052747;28;20653;-66
2021/11/22 11:15:42;;;;;;;1.13;0.93;;;17.80;60.10;;;;;;5055737;28;20183;-66
2021/11/22 11:18:22;;;;;;;3.58;0.85;;;17.80;60.20;;;;;;5057470;28;20167;-64
2021/11/22 11:20:47;;;;;;;1.40;0.80;;;17.80;60.30;;;;;;5052596;28;20304;-66
2021/11/22 11:23:13;;;;;;;1.95;0.98;;;17.80;60.20;;;;;;5053156;28;20171;-63
2021/11/22 11:25:38;;;;;;;1.35;0.80;;;17.80;60.40;;;;;;5051342;28;20167;-65
2021/11/22 11:28:04;;;;;;;4.95;1.15;;;17.90;60.40;;;;;;5053069;28;20175;-66
2021/11/22 11:30:30;;;;;;;3.88;0.90;;;17.90;60.20;;;;;;5051249;28;20621;-66
2021/11/22 11:32:55;;;;;;;2.03;0.90;;;18.00;60.10;;;;;;5052232;28;20175;-67
2021/11/22 11:35:21;;;;;;;2.65;0.77;;;18.00;60.00;;;;;;5053015;28;20260;-67
2021/11/22 11:38:14;;;;;;;3.20;0.70;;;17.90;60.00;;;;;;5052832;28;20305;-67
2021/11/22 11:40:42;;;;;;;4.97;0.90;;;17.90;60.00;;;;;;5051851;28;20607;-66
2021/11/22 11:43:24;;;;;;;1.77;0.70;;;17.90;60.90;;;;;;5051446;28;20313;-65
2021/11/22 11:46:10;;;;;;;2.42;0.88;;;17.90;60.10;;;;;;5051010;28;20266;-68
2021/11/22 11:48:55;;;;;;;2.80;0.75;;;17.90;60.20;;;;;;5052452;28;20183;-68
2021/11/22 11:51:32;;;;;;;2.88;0.93;;;17.90;60.10;;;;;;5052344;28;20254;-68
2021/11/22 11:54:02;;;;;;;2.30;0.80;;;17.90;60.00;;;;;;5050944;28;20169;-69
2021/11/22 11:56:34;;;;;;;3.88;0.90;;;17.90;59.80;;;;;;5052474;28;20245;-68
2021/11/22 11:59:27;;;;;;;1.92;0.70;;;17.90;59.90;;;;;;5051343;28;20527;-67
2021/11/22 12:02:10;;;;;;;3.70;0.85;;;17.90;59.80;;;;;;5051423;28;20232;-66
2021/11/22 12:04:46;;;;;;;1.85;0.80;;;17.90;59.80;;;;;;5052190;28;20211;-67
2021/11/22 12:07:12;;;;;;;3.60;1.10;;;17.80;59.70;;;;;;5052460;28;20253;-66
2021/11/22 12:09:41;;;;;;;2.75;0.70;;;17.80;59.70;;;;;;5051388;28;20753;-63
2021/11/22 12:12:07;;;;;;;2.80;0.80;;;17.80;59.70;;;;;;5051916;28;20242;-63
2021/11/22 12:14:55;;;;;;;1.55;0.88;;;17.80;59.60;;;;;;5051330;28;20589;-68
2021/11/22 12:17:41;;;;;;;1.52;0.95;;;17.80;59.60;;;;;;5068628;28;20182;-66
2021/11/22 12:20:21;;;;;;;4.07;1.15;;;17.80;59.60;;;;;;5067716;28;20179;-66
2021/11/22 12:22:56;;;;;;;2.13;0.77;;;17.80;59.60;;;;;;5071030;28;20185;-64
2021/11/22 12:25:37;;;;;;;3.42;0.70;;;17.80;59.60;;;;;;5072127;28;20619;-65
2021/11/22 12:28:24;;;;;;;2.08;0.80;;;17.80;59.60;;;;;;5072164;28;20655;-65
2021/11/22 12:31:04;;;;;;;4.22;0.90;;;17.80;59.60;;;;;;5067169;28;20296;-64
2021/11/22 12:33:31;;;;;;;1.35;0.65;;;17.90;59.70;;;;;;5071848;28;20178;-65
2021/11/22 12:36:00;;;;;;;3.47;0.70;;;17.90;59.70;;;;;;5071052;28;20206;-65
2021/11/22 12:38:44;;;;;;;4.40;1.00;;;17.90;59.70;;;;;;5071788;28;20186;-65
2021/11/22 12:41:30;;;;;;;1.52;0.60;;;17.90;59.80;;;;;;5072029;28;20175;-65
2021/11/22 12:44:00;;;;;;;3.13;0.75;;;17.90;59.80;;;;;;5071020;28;20178;-65
2021/11/22 12:46:35;;;;;;;1.77;0.63;;;17.90;59.80;;;;;;5071503;28;20222;-64
2021/11/22 12:49:00;;;;;;;2.25;0.70;;;17.90;59.90;;;;;;5071891;28;20181;-65
2021/11/22 12:51:26;;;;;;;2.45;0.80;;;17.90;59.90;;;;;;5070012;28;20260;-65